| time (UTC) | temp F | wind direction | speed knots | gust knots | rain 1hr in | rain 24hr in | rain mn in | humidity % | barometer mb |
| 20260507181601 | 67 | 31 | 0.9 | 3.5 | 0.00 | 0.02 | 0.02 | 56 | 1013.5 |
| 20260507180053 | 68 | 242 | 0.9 | 3.5 | 0.00 | 0.02 | 0.02 | 55 | 1013.4 |
| 20260507174557 | 68 | 167 | 0.9 | 2.6 | 0.00 | 0.02 | 0.02 | 54 | 1013.1 |
| 20260507173051 | 70 | 16 | 0.9 | 4.3 | 0.00 | 0.02 | 0.02 | 50 | 1013.0 |
| 20260507171602 | 72 | 266 | 0.9 | 3.5 | 0.00 | 0.02 | 0.02 | 42 | 1012.9 |
| 20260507170053 | 73 | 264 | 0.9 | 3.5 | 0.00 | 0.02 | 0.02 | 40 | 1013.0 |
| 20260507164553 | 74 | 191 | 0.0 | 4.3 | 0.00 | 0.03 | 0.02 | 41 | 1012.9 |
| 20260507163053 | 74 | 226 | 0.9 | 5.2 | 0.00 | 0.03 | 0.02 | 41 | 1013.1 |
| 20260507161555 | 74 | 139 | 0.0 | 6.1 | 0.00 | 0.03 | 0.02 | 44 | 1013.0 |
| 20260507160053 | 74 | 229 | 1.7 | 5.2 | 0.00 | 0.03 | 0.02 | 45 | 1013.0 |
| 20260507154552 | 75 | 260 | 0.9 | 3.5 | 0.00 | 0.17 | 0.02 | 43 | 1012.9 |
| 20260507153100 | 74 | 309 | 2.6 | 5.2 | 0.00 | 0.17 | 0.02 | 42 | 1013.0 |
| 20260507151550 | 75 | 128 | 0.9 | 6.1 | 0.00 | 0.17 | 0.02 | 42 | 1013.1 |
| 20260507150052 | 74 | 132 | 0.9 | 7.0 | 0.00 | 0.17 | 0.02 | 43 | 1013.1 |
| 20260507144553 | 76 | 190 | 0.9 | 2.6 | 0.00 | 0.25 | 0.02 | 42 | 1013.3 |
| 20260507143050 | 75 | 207 | 1.7 | 5.2 | 0.00 | 0.25 | 0.02 | 43 | 1013.4 |
| 20260507141552 | 75 | 90 | 1.7 | 6.1 | 0.00 | 0.25 | 0.02 | 42 | 1013.5 |
| 20260507140053 | 76 | 285 | 0.9 | 3.5 | 0.00 | 0.25 | 0.02 | 40 | 1013.5 |
| 20260507134554 | 76 | 162 | 0.9 | 4.3 | 0.00 | 0.25 | 0.02 | 45 | 1013.6 |
| 20260507133057 | 75 | 282 | 0.0 | 6.1 | 0.00 | 0.25 | 0.02 | 42 | 1013.8 |
| 20260507131600 | 76 | 167 | 0.9 | 3.5 | 0.00 | 0.25 | 0.02 | 43 | 1013.9 |
| 20260507130109 | 75 | 210 | 0.9 | 3.5 | 0.00 | 0.25 | 0.02 | 45 | 1013.9 |
| 20260507124557 | 75 | 150 | 1.7 | 5.2 | 0.00 | 0.25 | 0.02 | 43 | 1014.1 |
| 20260507123059 | 71 | 181 | 1.7 | 5.2 | 0.00 | 0.25 | 0.02 | 46 | 1014.1 |
| 20260507121607 | 74 | 141 | 0.9 | 3.5 | 0.00 | 0.25 | 0.02 | 47 | 1014.0 |
| 20260507114613 | 71 | 119 | 2.6 | 4.3 | 0.00 | 0.25 | 0.02 | 52 | 1014.1 |
| 20260507113055 | 71 | 41 | 0.9 | 2.6 | 0.00 | 0.25 | 0.02 | 56 | 1014.3 |
| 20260507111604 | 72 | 195 | 1.7 | 4.3 | 0.00 | 0.25 | 0.02 | 53 | 1014.6 |
| 20260507110109 | 72 | 118 | 0.9 | 5.2 | 0.00 | 0.25 | 0.02 | 54 | 1014.8 |
| 20260507104552 | 71 | 183 | 0.9 | 2.6 | 0.00 | 0.25 | 0.02 | 55 | 1014.9 |
| 20260507103051 | 69 | 228 | 0.9 | 3.5 | 0.00 | 0.25 | 0.02 | 60 | 1014.9 |
| 20260507101602 | 70 | 212 | 0.9 | 6.1 | 0.00 | 0.25 | 0.02 | 60 | 1015.2 |
| 20260507100048 | 69 | 165 | 1.7 | 4.3 | 0.00 | 0.25 | 0.02 | 60 | 1015.1 |
| 20260507094551 | 68 | 180 | 1.7 | 5.2 | 0.00 | 0.25 | 0.02 | 64 | 1015.1 |
| 20260507093055 | 67 | 184 | 1.7 | 7.0 | 0.00 | 0.25 | 0.02 | 65 | 1015.2 |
| 20260507091556 | 65 | 289 | 1.7 | 3.5 | 0.00 | 0.25 | 0.02 | 67 | 1015.2 |
| 20260507090057 | 65 | 0 | 0.9 | 2.6 | 0.00 | 0.25 | 0.02 | 70 | 1015.2 |
| 20260507084554 | 65 | 60 | 1.7 | 4.3 | 0.00 | 0.25 | 0.02 | 69 | 1015.3 |
| 20260507083053 | 65 | 198 | 0.0 | 1.7 | 0.00 | 0.25 | 0.02 | 70 | 1015.2 |
| 20260507081554 | 63 | 79 | 1.7 | 3.5 | 0.00 | 0.25 | 0.02 | 71 | 1015.0 |
| 20260507074602 | 63 | 285 | 0.0 | 2.6 | 0.00 | 0.25 | 0.02 | 75 | 1014.9 |
| 20260507073053 | 61 | 59 | 1.7 | 3.5 | 0.00 | 0.25 | 0.02 | 75 | 1014.9 |
| 20260507071553 | 62 | 0 | 0.9 | 1.7 | 0.00 | 0.25 | 0.02 | 77 | 1014.9 |
| 20260507070058 | 63 | 208 | 0.0 | 0.9 | 0.00 | 0.25 | 0.02 | 77 | 1014.7 |
| 20260507064554 | 62 | 226 | 0.0 | 0.9 | 0.00 | 0.25 | 0.02 | 80 | 1014.7 |
| 20260507063054 | 58 | 43 | 0.9 | 1.7 | 0.00 | 0.25 | 0.02 | 83 | 1014.7 |
| 20260507061554 | 60 | 221 | 0.0 | 0.9 | 0.00 | 0.25 | 0.02 | 83 | 1014.7 |
| 20260507060052 | 58 | 0 | 0.0 | 0.9 | 0.00 | 0.25 | 0.02 | 88 | 1014.6 |
| 20260507054631 | 57 | 96 | 0.0 | 0.9 | 0.00 | 0.25 | 0.02 | 90 | 1014.5 |
| 20260507053053 | 54 | 0 | 0.0 | 0.9 | 0.00 | 0.25 | 0.02 | 91 | 1014.4 |
| 20260507051552 | 52 | 0 | 0.0 | 0.0 | 0.00 | 0.25 | 0.02 | 91 | 1014.3 |
| 20260507050057 | 52 | 0 | 0.0 | 0.0 | 0.00 | 0.25 | 0.02 | 91 | 1014.2 |
| 20260507044554 | 51 | 0 | 0.0 | 0.0 | 0.00 | 0.25 | 0.02 | 91 | 1014.0 |
| 20260507043050 | 51 | 0 | 0.0 | 0.0 | 0.00 | 0.25 | 0.02 | 90 | 1013.8 |
| 20260507041603 | 51 | 0 | 0.0 | 0.0 | 0.00 | 0.25 | 0.02 | 90 | 1013.7 |
| 20260507040058 | 51 | 0 | 0.0 | 0.0 | 0.00 | 0.25 | 0.02 | 90 | 1013.7 |
| 20260507034600 | 51 | 0 | 0.0 | 0.9 | 0.00 | 0.25 | 0.02 | 90 | 1013.7 |
| 20260507033101 | 51 | 0 | 0.0 | 0.0 | 0.00 | 0.25 | 0.02 | 89 | 1013.6 |
| 20260507031605 | 52 | 0 | 0.0 | 0.0 | 0.00 | 0.25 | 0.02 | 89 | 1013.6 |
| 20260507030055 | 52 | 25 | 0.0 | 1.7 | 0.00 | 0.25 | 0.02 | 89 | 1013.6 |
| 20260507024553 | 52 | 13 | 0.0 | 0.9 | 0.00 | 0.37 | 0.02 | 89 | 1013.7 |
| 20260507023102 | 53 | 0 | 0.0 | 0.9 | 0.00 | 0.37 | 0.02 | 89 | 1013.7 |
| 20260507021551 | 53 | 0 | 0.0 | 0.9 | 0.00 | 0.37 | 0.02 | 88 | 1013.8 |
| 20260507020056 | 53 | 0 | 0.0 | 1.7 | 0.00 | 0.37 | 0.02 | 87 | 1013.6 |
| 20260507014600 | 53 | 37 | 0.9 | 2.6 | 0.00 | 0.37 | 0.02 | 87 | 1013.5 |
| 20260507013053 | 54 | 53 | 0.0 | 0.9 | 0.00 | 0.37 | 0.02 | 88 | 1013.6 |
| 20260507011552 | 54 | 0 | 0.0 | 0.9 | 0.00 | 0.37 | 0.02 | 87 | 1013.6 |
| 20260507010054 | 54 | 53 | 0.0 | 0.9 | 0.00 | 0.37 | 0.02 | 86 | 1013.8 |
| 20260507004552 | 54 | 0 | 0.0 | 1.7 | 0.00 | 0.37 | 0.02 | 86 | 1013.7 |
| 20260507003055 | 54 | 0 | 0.0 | 3.5 | 0.00 | 0.37 | 0.02 | 87 | 1013.7 |
| 20260507001551 | 54 | 112 | 0.0 | 0.9 | 0.00 | 0.37 | 0.02 | 87 | 1013.9 |
| 20260507000051 | 54 | 0 | 0.0 | 3.5 | 0.00 | 0.37 | 0.02 | 87 | 1013.8 |
| 20260506234550 | 54 | 139 | 0.9 | 2.6 | 0.00 | 0.37 | 0.02 | 87 | 1014.0 |
| 20260506233108 | 54 | 155 | 0.9 | 2.6 | 0.00 | 0.37 | 0.02 | 87 | 1013.9 |
| 20260506231553 | 54 | 70 | 0.9 | 3.5 | 0.00 | 0.37 | 0.02 | 88 | 1013.8 |
| 20260506230053 | 54 | 56 | 1.7 | 4.3 | 0.02 | 0.37 | 0.02 | 88 | 1014.0 |
| 20260506224553 | 55 | 134 | 2.6 | 5.2 | 0.02 | 0.40 | 0.02 | 88 | 1014.2 |
| 20260506223053 | 55 | 152 | 2.6 | 6.1 | 0.02 | 0.40 | 0.02 | 88 | 1014.0 |
| 20260506221553 | 55 | 137 | 1.7 | 5.2 | 0.01 | 0.40 | 0.01 | 88 | 1013.8 |
| 20260506220056 | 56 | 124 | 1.7 | 4.3 | 0.00 | 0.38 | 0.00 | 88 | 1013.9 |
| 20260506214552 | 56 | 136 | 0.9 | 4.3 | 0.00 | 0.38 | 0.38 | 88 | 1013.9 |
| 20260506213113 | 56 | 136 | 0.9 | 3.5 | 0.00 | 0.38 | 0.38 | 88 | 1013.8 |
| 20260506211551 | 56 | 0 | 0.0 | 1.7 | 0.00 | 0.38 | 0.38 | 88 | 1013.6 |
| 20260506210054 | 57 | 140 | 0.0 | 2.6 | 0.00 | 0.38 | 0.38 | 88 | 1013.6 |
| 20260506204554 | 57 | 127 | 0.9 | 2.6 | 0.00 | 0.38 | 0.38 | 88 | 1013.5 |
| 20260506203053 | 57 | 98 | 0.9 | 1.7 | 0.00 | 0.38 | 0.38 | 88 | 1013.4 |
| 20260506201550 | 58 | 128 | 1.7 | 4.3 | 0.00 | 0.38 | 0.38 | 88 | 1013.3 |
| 20260506200053 | 58 | 120 | 1.7 | 3.5 | 0.00 | 0.38 | 0.38 | 88 | 1013.2 |
| 20260506194616 | 59 | 122 | 0.9 | 3.5 | 0.00 | 0.38 | 0.38 | 88 | 1012.7 |
| 20260506193102 | 59 | 122 | 0.9 | 3.5 | 0.00 | 0.38 | 0.38 | 89 | 1012.8 |
| 20260506191551 | 59 | 135 | 0.0 | 4.3 | 0.00 | 0.38 | 0.38 | 89 | 1012.4 |
| 20260506190057 | 60 | 110 | 0.9 | 7.0 | 0.00 | 0.38 | 0.38 | 89 | 1012.1 |
| 20260506184638 | 60 | 134 | 1.7 | 3.5 | 0.00 | 0.38 | 0.38 | 88 | 1012.0 |
| 20260506183057 | 61 | 0 | 0.0 | 0.9 | 0.00 | 0.38 | 0.38 | 88 | 1011.7 |